createdAt,value
2022-09-23T00:01:42.787Z,43.27
2022-09-23T00:05:10.750Z,43.26
2022-09-23T00:08:38.530Z,42.94
2022-09-23T00:12:12.162Z,43.03
2022-09-23T00:15:39.202Z,43.28
2022-09-23T00:18:19.555Z,43.30
2022-09-23T00:21:46.801Z,43.58
2022-09-23T00:25:04.426Z,43.45
2022-09-23T00:28:21.685Z,43.67
2022-09-23T00:31:50.767Z,43.78
2022-09-23T00:35:18.204Z,43.73
2022-09-23T00:38:45.735Z,43.32
2022-09-23T00:42:06.609Z,43.54
2022-09-23T00:45:34.452Z,43.59
2022-09-23T00:49:01.045Z,43.63
2022-09-23T00:51:55.476Z,43.60
2022-09-23T00:55:22.798Z,43.50
2022-09-23T00:58:44.764Z,43.65
2022-09-23T01:02:04.406Z,44.15
2022-09-23T01:05:10.751Z,43.85
2022-09-23T01:08:40.095Z,43.71
2022-09-23T01:12:10.077Z,43.53
2022-09-23T01:15:48.478Z,43.77
2022-09-23T01:19:25.380Z,43.72
2022-09-23T01:22:46.599Z,43.71
2022-09-23T01:26:13.654Z,43.96
2022-09-23T01:29:25.930Z,43.24
2022-09-23T01:33:06.571Z,43.03
2022-09-23T01:36:41.871Z,42.72
2022-09-23T01:40:11.485Z,42.29
2022-09-23T01:43:46.202Z,42.11
2022-09-23T01:47:28.268Z,41.89
2022-09-23T01:51:19.213Z,41.64
2022-09-23T01:55:02.963Z,41.43
2022-09-23T01:58:21.412Z,41.34
2022-09-23T02:01:54.912Z,41.39
2022-09-23T02:05:27.191Z,41.27
2022-09-23T02:08:42.992Z,41.47
2022-09-23T02:12:09.635Z,41.44
2022-09-23T02:15:52.398Z,41.75
2022-09-23T02:19:26.478Z,41.69
2022-09-23T02:23:03.071Z,41.84
2022-09-23T02:26:47.222Z,42.01
2022-09-23T02:30:11.958Z,42.08
2022-09-23T02:33:44.807Z,42.31
2022-09-23T02:37:21.702Z,42.24
2022-09-23T02:40:56.140Z,42.20
2022-09-23T02:44:12.749Z,42.11
2022-09-23T02:47:40.968Z,42.06
2022-09-23T02:50:48.855Z,42.19
2022-09-23T02:54:15.980Z,42.27
2022-09-23T02:57:36.713Z,42.39
2022-09-23T03:01:04.061Z,42.37
2022-09-23T03:04:25.591Z,42.36
2022-09-23T03:07:29.237Z,42.39
2022-09-23T03:10:49.813Z,42.45
2022-09-23T03:14:27.958Z,42.61
2022-09-23T03:18:04.297Z,42.65
2022-09-23T03:21:24.208Z,42.72
2022-09-23T03:24:53.290Z,42.94
2022-09-23T03:28:17.374Z,43.00
2022-09-23T03:31:36.943Z,43.22
2022-09-23T03:35:01.714Z,43.44
2022-09-23T03:38:32.926Z,43.73
2022-09-23T03:41:52.631Z,44.08
2022-09-23T03:44:52.645Z,44.34
2022-09-23T03:48:04.093Z,44.54
2022-09-23T03:51:32.446Z,44.88
2022-09-23T03:54:59.406Z,45.15
2022-09-23T03:58:26.774Z,45.34
2022-09-23T04:01:40.388Z,45.76
2022-09-23T04:05:03.461Z,46.06
2022-09-23T04:07:56.016Z,46.29
2022-09-23T04:11:17.569Z,46.41
2022-09-23T04:14:30.149Z,46.73
2022-09-23T04:17:56.604Z,46.96
2022-09-23T04:21:12.607Z,47.18
2022-09-23T04:24:23.214Z,47.41
2022-09-23T04:27:41.040Z,47.60
2022-09-23T04:31:07.764Z,47.91
2022-09-23T04:34:17.828Z,48.11
2022-09-23T04:37:37.606Z,48.27
2022-09-23T04:41:05.197Z,48.35
2022-09-23T04:44:12.266Z,48.50
2022-09-23T04:47:28.553Z,48.69
2022-09-23T04:50:55.068Z,48.87
2022-09-23T04:54:22.033Z,48.99
2022-09-23T04:57:41.475Z,49.24
2022-09-23T05:00:40.614Z,49.44
2022-09-23T05:03:50.430Z,49.58
2022-09-23T05:07:10.519Z,49.71
2022-09-23T05:10:41.051Z,49.79
2022-09-23T05:13:43.583Z,49.94
2022-09-23T05:17:09.995Z,50.15
2022-09-23T05:20:36.497Z,50.35
2022-09-23T05:24:04.227Z,50.52
2022-09-23T05:27:24.720Z,50.78
2022-09-23T05:30:51.664Z,50.81
2022-09-23T05:34:18.821Z,51.01
2022-09-23T05:37:47.608Z,51.15
2022-09-23T05:41:15.494Z,51.31
2022-09-23T05:44:41.480Z,51.47
2022-09-23T05:47:35.165Z,51.67
2022-09-23T05:51:08.391Z,51.80
2022-09-23T05:54:27.999Z,51.96
2022-09-23T05:57:55.817Z,52.05
2022-09-23T06:01:23.766Z,52.28
2022-09-23T06:04:50.902Z,52.46
2022-09-23T06:08:18.705Z,52.78
2022-09-23T06:11:47.952Z,52.99
2022-09-23T06:14:56.315Z,53.14
2022-09-23T06:18:16.291Z,53.19
2022-09-23T06:21:37.098Z,53.24
2022-09-23T06:24:30.857Z,53.30
2022-09-23T06:27:41.735Z,53.45
2022-09-23T06:30:51.505Z,53.50
2022-09-23T06:34:13.666Z,53.79
2022-09-23T06:37:30.918Z,53.90
2022-09-23T06:40:42.352Z,54.10
2022-09-23T06:44:09.529Z,54.10
2022-09-23T06:47:19.358Z,54.23
2022-09-23T06:50:45.109Z,54.49
2022-09-23T06:53:28.836Z,54.71
2022-09-23T06:56:37.985Z,54.96
2022-09-23T06:59:41.820Z,54.99
2022-09-23T07:03:04.700Z,55.08
2022-09-23T07:06:31.078Z,55.14
2022-09-23T07:09:37.740Z,55.43
2022-09-23T07:13:04.455Z,55.47
2022-09-23T07:16:30.997Z,55.82
2022-09-23T07:19:50.348Z,55.81
2022-09-23T07:22:49.421Z,56.06
2022-09-23T07:26:08.135Z,56.17
2022-09-23T07:29:44.643Z,56.28
2022-09-23T07:33:21.791Z,56.35
2022-09-23T07:36:33.178Z,56.60
2022-09-23T07:39:42.980Z,56.76
2022-09-23T07:43:04.379Z,57.00
2022-09-23T07:46:25.421Z,57.21
2022-09-23T07:49:50.861Z,57.32
2022-09-23T07:52:58.338Z,57.48
2022-09-23T07:56:16.345Z,57.75
2022-09-23T07:59:34.347Z,57.75
2022-09-23T08:03:02.021Z,57.90
2022-09-23T08:06:27.959Z,57.95
2022-09-23T08:09:42.359Z,57.99
2022-09-23T08:13:01.553Z,58.19
2022-09-23T08:16:29.542Z,58.17
2022-09-23T08:19:56.460Z,58.20
2022-09-23T08:23:06.720Z,58.17
2022-09-23T08:26:30.542Z,58.23
2022-09-23T08:29:28.618Z,58.39
2022-09-23T08:32:55.295Z,58.45
2022-09-23T08:36:21.800Z,58.61
2022-09-23T08:39:40.220Z,58.62
2022-09-23T08:42:45.504Z,58.59
2022-09-23T08:46:12.214Z,58.66
2022-09-23T08:49:30.908Z,58.55
2022-09-23T08:52:48.476Z,58.63
2022-09-23T08:56:16.226Z,58.86
2022-09-23T08:59:51.886Z,58.92
2022-09-23T09:03:21.956Z,59.05
2022-09-23T09:06:53.614Z,59.26
2022-09-23T09:10:25.554Z,59.41
2022-09-23T09:13:53.239Z,59.52
2022-09-23T09:17:34.374Z,59.71
2022-09-23T09:21:26.709Z,59.91
2022-09-23T09:24:59.009Z,60.02
2022-09-23T09:28:11.824Z,60.00
2022-09-23T09:31:39.589Z,60.30
2022-09-23T09:35:07.177Z,60.24
2022-09-23T09:38:34.228Z,60.49
2022-09-23T09:41:58.213Z,60.46
2022-09-23T09:45:24.213Z,60.77
2022-09-23T09:48:40.348Z,60.89
2022-09-23T09:52:25.748Z,61.07
2022-09-23T09:55:55.976Z,62.27
2022-09-23T09:59:29.392Z,62.53
2022-09-23T10:02:57.782Z,62.59
2022-09-23T10:06:30.671Z,62.60
2022-09-23T10:10:01.815Z,62.82
2022-09-23T10:13:36.746Z,63.08
2022-09-23T10:17:03.245Z,62.95
2022-09-23T10:20:32.154Z,62.96
2022-09-23T10:23:59.749Z,62.88
2022-09-23T10:27:38.191Z,62.89
2022-09-23T10:31:09.611Z,62.66
2022-09-23T10:34:39.079Z,62.40
2022-09-23T10:38:11.636Z,62.31
2022-09-23T10:41:11.459Z,62.47
2022-09-23T10:44:35.345Z,62.51
2022-09-23T10:47:46.301Z,62.85
2022-09-23T10:51:31.068Z,62.92
2022-09-23T10:55:06.981Z,63.04
2022-09-23T11:02:13.645Z,63.23
2022-09-23T11:05:30.257Z,63.31
2022-09-23T11:08:31.755Z,63.48
2022-09-23T11:11:59.625Z,63.60
2022-09-23T11:15:38.839Z,63.59
2022-09-23T11:18:57.394Z,63.83
2022-09-23T11:22:35.013Z,63.89
2022-09-23T11:25:47.447Z,63.84
2022-09-23T11:29:01.027Z,64.17
2022-09-23T11:32:40.602Z,63.94
2022-09-23T11:35:54.184Z,64.05
2022-09-23T11:39:03.373Z,64.16
2022-09-23T11:42:08.624Z,64.14
2022-09-23T11:45:38.807Z,64.30
2022-09-23T11:48:59.153Z,64.55
2022-09-23T11:52:31.696Z,64.53
2022-09-23T11:56:01.156Z,64.52
2022-09-23T11:59:38.735Z,64.63
2022-09-23T12:03:07.794Z,64.69
2022-09-23T12:06:46.659Z,64.64
2022-09-23T12:10:27.840Z,64.83
2022-09-23T12:13:58.507Z,64.88
2022-09-23T12:17:21.568Z,65.12
2022-09-23T12:20:45.276Z,65.11
2022-09-23T12:24:04.615Z,65.13
2022-09-23T12:27:31.977Z,65.03
2022-09-23T12:30:59.085Z,65.10
2022-09-23T12:34:22.417Z,65.38
2022-09-23T12:37:49.858Z,65.33
2022-09-23T12:41:17.568Z,65.44
2022-09-23T12:44:43.087Z,65.20
2022-09-23T12:48:19.854Z,65.55
2022-09-23T12:51:59.481Z,65.65
2022-09-23T12:55:04.747Z,65.67
2022-09-23T12:58:34.006Z,65.71
2022-09-23T13:01:57.453Z,65.72
2022-09-23T13:05:49.225Z,65.82
2022-09-23T13:09:15.778Z,65.82
2022-09-23T13:12:43.088Z,65.84
2022-09-23T13:16:10.261Z,65.76
2022-09-23T13:19:38.815Z,65.96
2022-09-23T13:23:23.962Z,65.81
2022-09-23T13:26:47.031Z,65.85
2022-09-23T13:30:20.305Z,66.14
2022-09-23T13:33:59.026Z,66.02
2022-09-23T13:37:05.731Z,66.08
2022-09-23T13:40:26.152Z,66.26
2022-09-23T13:43:46.998Z,66.24
2022-09-23T13:47:24.830Z,66.44
2022-09-23T13:50:56.721Z,66.30
2022-09-23T13:54:26.241Z,66.30
2022-09-23T13:58:08.661Z,66.04
2022-09-23T14:01:35.740Z,66.19
2022-09-23T14:05:09.224Z,66.28
2022-09-23T14:08:27.572Z,66.52
2022-09-23T14:11:51.037Z,66.32
2022-09-23T14:15:18.336Z,66.60
2022-09-23T14:18:46.570Z,66.57
2022-09-23T14:22:35.290Z,66.57
2022-09-23T14:25:54.930Z,67.48
2022-09-23T14:29:21.684Z,67.49
2022-09-23T14:32:39.251Z,66.43
2022-09-23T14:36:06.870Z,65.33
2022-09-23T14:39:24.683Z,63.65
2022-09-23T14:42:51.680Z,62.24
2022-09-23T14:46:01.644Z,60.67
2022-09-23T14:49:12.599Z,59.28
2022-09-23T14:52:19.744Z,57.99
2022-09-23T14:55:39.499Z,56.88
2022-09-23T14:58:58.607Z,55.41
2022-09-23T15:02:26.821Z,54.37
2022-09-23T15:05:48.242Z,53.20
2022-09-23T15:09:05.234Z,52.52
2022-09-23T15:11:52.613Z,51.91
2022-09-23T15:15:01.152Z,51.50
2022-09-23T15:18:27.437Z,50.96
2022-09-23T15:21:42.254Z,50.35
2022-09-23T15:25:05.391Z,49.84
2022-09-23T15:27:56.770Z,49.36
2022-09-23T15:31:12.647Z,49.10
2022-09-23T15:34:15.855Z,48.54
2022-09-23T15:37:34.233Z,48.32
2022-09-23T15:41:02.866Z,47.88
2022-09-23T15:44:12.471Z,47.73
2022-09-23T15:47:12.430Z,47.23
2022-09-23T15:50:32.379Z,46.69
2022-09-23T15:53:33.336Z,46.47
2022-09-23T15:56:30.825Z,46.42
2022-09-23T15:59:48.786Z,46.56
2022-09-23T16:02:59.771Z,46.37
2022-09-23T16:06:38.953Z,46.25
2022-09-23T16:09:14.181Z,46.18
2022-09-23T16:12:13.337Z,46.07
2022-09-23T16:15:41.089Z,45.59
2022-09-23T16:19:00.574Z,45.68
2022-09-23T16:21:58.911Z,45.54
2022-09-23T16:25:27.926Z,45.56
2022-09-23T16:28:54.929Z,45.99
2022-09-23T16:32:23.642Z,45.97
2022-09-23T16:35:17.381Z,45.67
2022-09-23T16:38:35.247Z,45.27
2022-09-23T16:42:02.076Z,45.08
2022-09-23T16:45:29.152Z,44.88
2022-09-23T16:48:23.576Z,44.77
2022-09-23T16:51:51.402Z,44.78
2022-09-23T16:55:18.915Z,44.71
2022-09-23T16:58:29.272Z,44.56
2022-09-23T17:02:00.911Z,44.45
2022-09-23T17:05:28.185Z,43.77
2022-09-23T17:08:48.483Z,43.74
2022-09-23T17:12:06.026Z,43.90
2022-09-23T17:15:28.267Z,44.14
2022-09-23T17:22:38.365Z,44.27
2022-09-23T17:26:05.716Z,44.25
2022-09-23T17:29:26.967Z,44.27
2022-09-23T17:32:24.481Z,43.71
2022-09-23T17:35:34.560Z,43.90
2022-09-23T17:38:55.030Z,43.50
2022-09-23T17:42:01.958Z,42.95
2022-09-23T17:45:31.616Z,43.06
2022-09-23T17:48:51.046Z,42.87
2022-09-23T17:52:18.122Z,42.43
2022-09-23T17:55:46.469Z,42.51
2022-09-23T17:59:04.216Z,42.15
2022-09-23T18:02:04.971Z,41.89
2022-09-23T18:05:15.960Z,41.74
2022-09-23T18:08:22.501Z,41.56
2022-09-23T18:11:52.030Z,41.50
2022-09-23T18:15:11.457Z,41.34
2022-09-23T18:18:39.530Z,41.31
2022-09-23T18:22:03.652Z,41.05
2022-09-23T18:25:39.104Z,40.21
2022-09-23T18:29:06.831Z,39.51
2022-09-23T18:32:17.892Z,39.29
2022-09-23T18:35:46.490Z,38.95
2022-09-23T18:39:03.563Z,38.73
2022-09-23T18:42:32.878Z,38.31
2022-09-23T18:45:22.965Z,37.92
2022-09-23T18:48:47.943Z,37.60
2022-09-23T18:52:14.840Z,36.93
2022-09-23T18:55:32.898Z,36.43
2022-09-23T18:58:39.726Z,36.36
2022-09-23T19:01:54.098Z,35.87
2022-09-23T19:05:00.614Z,36.27
2022-09-23T19:08:17.549Z,36.11
2022-09-23T19:11:19.903Z,35.77
2022-09-23T19:14:10.837Z,35.24
2022-09-23T19:17:01.118Z,35.20
2022-09-23T19:20:19.407Z,35.23
2022-09-23T19:23:45.883Z,34.93
2022-09-23T19:26:29.988Z,34.97
2022-09-23T19:29:56.380Z,34.57
2022-09-23T19:33:22.777Z,34.55
2022-09-23T19:36:31.813Z,34.69
2022-09-23T19:39:58.787Z,34.21
2022-09-23T19:42:40.172Z,33.70
2022-09-23T19:46:08.205Z,33.94
2022-09-23T19:49:22.159Z,33.21
2022-09-23T19:52:33.848Z,33.50
2022-09-23T19:55:54.171Z,33.91
2022-09-23T19:59:20.540Z,33.73
2022-09-23T20:02:46.208Z,33.52
2022-09-23T20:06:02.235Z,32.95
2022-09-23T20:09:28.566Z,33.08
2022-09-23T20:12:55.630Z,33.22
2022-09-23T20:16:11.005Z,33.32
2022-09-23T20:19:28.825Z,33.11
2022-09-23T20:22:55.348Z,32.86
2022-09-23T20:26:13.298Z,32.77
2022-09-23T20:29:34.696Z,32.36
2022-09-23T20:33:01.121Z,32.39
2022-09-23T20:36:12.091Z,32.33
2022-09-23T20:39:27.849Z,32.38
2022-09-23T20:42:47.524Z,31.78
2022-09-23T20:45:52.451Z,32.28
2022-09-23T20:48:52.787Z,31.87
2022-09-23T20:52:01.332Z,31.77
2022-09-23T20:55:29.304Z,31.95
2022-09-23T20:58:59.259Z,31.54
2022-09-23T21:02:05.738Z,31.56
2022-09-23T21:05:31.730Z,31.51
2022-09-23T21:08:50.052Z,31.26
2022-09-23T21:12:17.412Z,31.28
2022-09-23T21:15:43.990Z,31.06
2022-09-23T21:18:54.538Z,31.24
2022-09-23T21:22:10.234Z,31.23
2022-09-23T21:25:16.027Z,31.08
2022-09-23T21:28:16.627Z,30.83
2022-09-23T21:31:38.519Z,30.82
2022-09-23T21:34:47.107Z,30.15
2022-09-23T21:38:14.144Z,30.23
2022-09-23T21:41:41.296Z,30.30
2022-09-23T21:44:51.062Z,30.33
2022-09-23T21:47:47.803Z,30.36
2022-09-23T21:50:54.546Z,30.65
2022-09-23T21:54:20.996Z,30.65
2022-09-23T21:57:48.270Z,30.52
2022-09-23T22:00:51.513Z,30.43
2022-09-23T22:04:18.517Z,30.67
2022-09-23T22:07:25.552Z,31.05
2022-09-23T22:10:53.042Z,31.16
2022-09-23T22:13:54.823Z,31.19
2022-09-23T22:17:15.279Z,31.20
2022-09-23T22:20:24.938Z,30.85
2022-09-23T22:23:11.898Z,30.87
2022-09-23T22:26:38.237Z,30.96
2022-09-23T22:29:15.796Z,31.29
2022-09-23T22:32:57.421Z,31.44
2022-09-23T22:36:17.317Z,31.70
2022-09-23T22:39:26.258Z,32.10
2022-09-23T22:42:24.313Z,32.02
2022-09-23T22:45:42.193Z,31.84
2022-09-23T22:49:08.052Z,31.90
2022-09-23T22:52:19.177Z,31.87
2022-09-23T22:55:20.082Z,32.01
2022-09-23T22:58:35.813Z,31.78
2022-09-23T23:02:03.232Z,31.77
2022-09-23T23:05:08.652Z,31.87
2022-09-23T23:08:17.418Z,31.42
2022-09-23T23:11:28.667Z,31.51
2022-09-23T23:14:08.995Z,31.55
2022-09-23T23:17:19.495Z,31.62
2022-09-23T23:20:29.822Z,31.89
2022-09-23T23:23:32.792Z,31.74
2022-09-23T23:26:51.297Z,31.79
2022-09-23T23:30:20.034Z,31.71
2022-09-23T23:33:27.421Z,31.70
2022-09-23T23:36:43.332Z,31.63
2022-09-23T23:40:01.313Z,32.02
2022-09-23T23:43:22.573Z,31.34
2022-09-23T23:46:33.320Z,31.47
2022-09-23T23:49:33.999Z,31.98
2022-09-23T23:53:01.174Z,31.79
2022-09-23T23:56:29.621Z,31.93
2022-09-23T23:59:37.058Z,31.61
